createdAt,value
2023-10-10T00:01:07.202Z,14.56
2023-10-10T00:03:41.000Z,14.57
2023-10-10T00:06:15.018Z,14.55
2023-10-10T00:08:47.959Z,14.52
2023-10-10T00:11:20.279Z,14.51
2023-10-10T00:13:54.330Z,14.49
2023-10-10T00:16:27.898Z,14.47
2023-10-10T00:19:04.780Z,14.45
2023-10-10T00:21:36.354Z,14.45
2023-10-10T00:24:12.269Z,14.44
2023-10-10T00:26:44.803Z,14.45
2023-10-10T00:29:19.374Z,14.45
2023-10-10T00:31:56.918Z,14.44
2023-10-10T00:34:35.380Z,14.35
2023-10-10T00:37:12.172Z,14.31
2023-10-10T00:39:53.493Z,14.29
2023-10-10T00:42:38.160Z,14.24
2023-10-10T00:45:13.773Z,14.22
2023-10-10T00:47:54.740Z,14.21
2023-10-10T00:50:27.563Z,14.18
2023-10-10T00:52:58.237Z,14.18
2023-10-10T00:55:34.623Z,14.16
2023-10-10T00:58:09.030Z,14.12
2023-10-10T01:00:46.071Z,14.09
2023-10-10T01:03:22.802Z,14.05
2023-10-10T01:05:56.650Z,14.06
2023-10-10T01:08:31.754Z,14.05
2023-10-10T01:11:06.194Z,14.06
2023-10-10T01:13:37.633Z,14.04
2023-10-10T01:16:10.053Z,14.06
2023-10-10T01:18:52.838Z,14.08
2023-10-10T01:21:31.919Z,14.04
2023-10-10T01:24:07.435Z,14.02
2023-10-10T01:26:39.708Z,14.00
2023-10-10T01:29:23.009Z,13.97
2023-10-10T01:31:56.039Z,13.95
2023-10-10T01:34:41.112Z,13.90
2023-10-10T01:37:22.378Z,13.85
2023-10-10T01:40:17.310Z,13.82
2023-10-10T01:42:55.219Z,13.80
2023-10-10T01:45:28.617Z,13.79
2023-10-10T01:48:04.280Z,13.79
2023-10-10T01:50:35.869Z,13.81
2023-10-10T01:53:11.138Z,13.80
2023-10-10T01:55:43.375Z,13.80
2023-10-10T01:58:20.777Z,13.81
2023-10-10T02:00:52.824Z,13.79
2023-10-10T02:03:25.401Z,13.71
2023-10-10T02:05:57.667Z,13.64
2023-10-10T02:08:29.151Z,13.58
2023-10-10T02:11:03.492Z,13.52
2023-10-10T02:13:40.962Z,13.50
2023-10-10T02:16:13.697Z,13.49
2023-10-10T02:18:52.696Z,13.47
2023-10-10T02:21:44.545Z,13.44
2023-10-10T02:24:36.067Z,13.44
2023-10-10T02:27:07.911Z,13.40
2023-10-10T02:29:49.122Z,13.38
2023-10-10T02:32:21.975Z,13.36
2023-10-10T02:35:15.797Z,13.41
2023-10-10T02:37:48.159Z,13.42
2023-10-10T02:40:19.802Z,13.43
2023-10-10T02:43:11.616Z,13.43
2023-10-10T02:45:46.356Z,13.42
2023-10-10T02:48:22.286Z,13.42
2023-10-10T02:50:54.289Z,13.40
2023-10-10T02:53:25.876Z,13.39
2023-10-10T02:56:02.840Z,13.41
2023-10-10T02:58:39.494Z,13.40
2023-10-10T03:01:20.771Z,13.37
2023-10-10T03:03:56.422Z,13.35
2023-10-10T03:06:30.409Z,13.36
2023-10-10T03:09:14.739Z,13.35
2023-10-10T03:12:04.755Z,13.34
2023-10-10T03:14:37.152Z,13.34
2023-10-10T03:17:31.003Z,13.33
2023-10-10T03:20:14.665Z,13.35
2023-10-10T03:23:11.263Z,13.33
2023-10-10T03:25:49.413Z,13.29
2023-10-10T03:28:22.860Z,13.26
2023-10-10T03:31:05.742Z,13.23
2023-10-10T03:33:44.401Z,13.20
2023-10-10T03:36:25.133Z,13.19
2023-10-10T03:39:24.746Z,13.19
2023-10-10T03:42:10.167Z,13.19
2023-10-10T03:47:49.798Z,13.20
2023-10-10T03:50:41.457Z,13.21
2023-10-10T03:53:26.969Z,13.20
2023-10-10T03:56:12.350Z,13.18
2023-10-10T03:58:57.668Z,13.19
2023-10-10T04:01:43.010Z,13.19
2023-10-10T04:04:28.219Z,13.16
2023-10-10T04:07:13.368Z,13.14
2023-10-10T04:10:01.687Z,13.10
2023-10-10T04:12:46.860Z,13.08
2023-10-10T04:15:32.621Z,13.05
2023-10-10T04:18:17.911Z,13.00
2023-10-10T04:21:03.090Z,13.02
2023-10-10T04:23:48.262Z,12.92
2023-10-10T04:26:33.927Z,12.95
2023-10-10T04:29:19.415Z,12.90
2023-10-10T04:32:06.916Z,12.86
2023-10-10T04:34:52.659Z,12.83
2023-10-10T04:37:37.856Z,12.82
2023-10-10T04:40:24.708Z,12.80
2023-10-10T04:43:09.870Z,12.76
2023-10-10T04:45:55.254Z,12.76
2023-10-10T04:48:40.609Z,12.75
2023-10-10T04:51:26.042Z,12.73
2023-10-10T04:54:11.466Z,12.69
2023-10-10T04:56:56.710Z,12.66
2023-10-10T04:59:41.954Z,12.65
2023-10-10T05:02:27.306Z,12.66
2023-10-10T05:05:12.644Z,12.65
2023-10-10T05:07:58.023Z,12.65
2023-10-10T05:10:43.300Z,12.65
2023-10-10T05:13:28.436Z,12.64
2023-10-10T05:16:19.608Z,12.64
2023-10-10T05:19:04.845Z,12.66
2023-10-10T05:21:50.070Z,12.67
2023-10-10T05:24:25.256Z,12.71
2023-10-10T05:26:57.833Z,12.75
2023-10-10T05:29:31.713Z,12.76
2023-10-10T05:32:09.514Z,12.76
2023-10-10T05:34:42.045Z,12.74
2023-10-10T05:37:13.340Z,12.73
2023-10-10T05:39:47.350Z,12.72
2023-10-10T05:42:21.998Z,12.72
2023-10-10T05:44:53.940Z,12.68
2023-10-10T05:47:25.400Z,12.68
2023-10-10T05:49:58.813Z,12.68
2023-10-10T05:52:30.159Z,12.69
2023-10-10T05:55:01.562Z,12.70
2023-10-10T05:57:35.318Z,12.70
2023-10-10T06:00:11.901Z,12.70
2023-10-10T06:02:44.267Z,12.70
2023-10-10T06:05:17.813Z,12.70
2023-10-10T06:07:50.843Z,12.69
2023-10-10T06:10:24.689Z,12.68
2023-10-10T06:12:56.485Z,12.66
2023-10-10T06:15:29.865Z,12.69
2023-10-10T06:18:09.676Z,12.71
2023-10-10T06:23:22.024Z,12.77
2023-10-10T06:26:00.398Z,12.79
2023-10-10T06:28:37.035Z,12.78
2023-10-10T06:31:11.786Z,12.83
2023-10-10T06:33:43.453Z,12.82
2023-10-10T06:36:33.723Z,12.83
2023-10-10T06:39:19.583Z,12.82
2023-10-10T06:41:52.804Z,12.82
2023-10-10T06:44:37.133Z,12.86
2023-10-10T06:47:13.548Z,12.89
2023-10-10T06:49:55.939Z,12.91
2023-10-10T06:52:29.547Z,12.94
2023-10-10T06:55:11.771Z,12.96
2023-10-10T06:57:47.038Z,12.99
2023-10-10T07:00:29.087Z,13.01
2023-10-10T07:03:01.558Z,13.03
2023-10-10T07:05:35.197Z,13.06
2023-10-10T07:08:21.325Z,13.07
2023-10-10T07:10:54.814Z,13.10
2023-10-10T07:13:30.826Z,13.14
2023-10-10T07:16:03.166Z,13.18
2023-10-10T07:18:34.618Z,13.17
2023-10-10T07:21:09.942Z,13.26
2023-10-10T07:23:55.118Z,13.31
2023-10-10T07:26:31.710Z,13.35
2023-10-10T07:29:23.179Z,13.37
2023-10-10T07:31:59.796Z,13.40
2023-10-10T07:34:36.516Z,13.43
2023-10-10T07:37:10.228Z,13.46
2023-10-10T07:39:56.405Z,13.49
2023-10-10T07:42:30.642Z,13.53
2023-10-10T07:45:04.450Z,13.60
2023-10-10T07:47:56.978Z,13.66
2023-10-10T07:50:35.905Z,13.74
2023-10-10T07:53:08.007Z,13.83
2023-10-10T07:55:54.360Z,13.90
2023-10-10T07:58:41.299Z,13.97
2023-10-10T08:01:20.484Z,14.04
2023-10-10T08:03:52.123Z,14.08
2023-10-10T08:06:24.393Z,14.11
2023-10-10T08:09:11.900Z,14.14
2023-10-10T08:11:44.558Z,14.18
2023-10-10T08:14:18.998Z,14.21
2023-10-10T08:17:00.210Z,14.28
2023-10-10T08:19:34.919Z,14.33
2023-10-10T08:22:13.865Z,14.38
2023-10-10T08:24:45.516Z,14.44
2023-10-10T08:27:16.885Z,14.49
2023-10-10T08:29:48.947Z,14.56
2023-10-10T08:32:20.393Z,14.62
2023-10-10T08:34:51.851Z,14.68
2023-10-10T08:37:28.243Z,14.72
2023-10-10T08:40:16.712Z,14.77
2023-10-10T08:42:49.222Z,14.83
2023-10-10T08:45:25.104Z,14.92
2023-10-10T08:48:01.855Z,14.99
2023-10-10T08:50:34.252Z,15.06
2023-10-10T08:53:06.529Z,15.12
2023-10-10T08:55:40.434Z,15.18
2023-10-10T08:58:12.574Z,15.25
2023-10-10T09:00:45.986Z,15.31
2023-10-10T09:03:21.148Z,15.36
2023-10-10T09:05:52.924Z,15.41
2023-10-10T09:08:28.884Z,15.47
2023-10-10T09:11:00.772Z,15.56
2023-10-10T09:13:33.225Z,15.65
2023-10-10T09:16:08.908Z,15.72
2023-10-10T09:18:40.452Z,15.78
2023-10-10T09:21:20.317Z,15.85
2023-10-10T09:24:09.155Z,15.91
2023-10-10T09:26:44.082Z,15.97
2023-10-10T09:29:34.025Z,16.04
2023-10-10T09:32:06.853Z,16.12
2023-10-10T09:34:42.102Z,16.19
2023-10-10T09:37:18.944Z,16.26
2023-10-10T09:39:56.363Z,16.36
2023-10-10T09:42:46.062Z,16.48
2023-10-10T09:45:37.325Z,16.60
2023-10-10T09:48:18.433Z,16.72
2023-10-10T09:51:09.378Z,16.84
2023-10-10T09:53:41.620Z,16.95
2023-10-10T09:56:14.857Z,17.03
2023-10-10T09:58:48.277Z,17.08
2023-10-10T10:01:24.437Z,17.13
2023-10-10T10:04:01.957Z,17.17
2023-10-10T10:07:05.986Z,17.20
2023-10-10T10:10:10.387Z,17.25
2023-10-10T10:13:20.599Z,17.31
2023-10-10T10:16:09.699Z,17.40
2023-10-10T10:18:46.986Z,17.48
2023-10-10T10:21:31.969Z,17.57
2023-10-10T10:24:17.640Z,17.70
2023-10-10T10:27:24.906Z,17.82
2023-10-10T10:30:09.941Z,17.94
2023-10-10T10:32:44.016Z,18.05
2023-10-10T10:35:22.894Z,18.13
2023-10-10T10:38:00.758Z,18.22
2023-10-10T10:40:47.386Z,18.28
2023-10-10T10:43:32.723Z,18.33
2023-10-10T10:46:16.054Z,18.40
2023-10-10T10:48:56.080Z,18.48
2023-10-10T10:51:29.563Z,18.52
2023-10-10T10:54:01.281Z,18.57
2023-10-10T10:56:45.725Z,18.64
2023-10-10T10:59:21.934Z,18.71
2023-10-10T11:01:57.993Z,18.77
2023-10-10T11:04:43.928Z,18.83
2023-10-10T11:07:27.542Z,18.90
2023-10-10T11:10:09.004Z,18.97
2023-10-10T11:12:41.428Z,19.05
2023-10-10T11:15:13.531Z,19.11
2023-10-10T11:18:08.924Z,19.16
2023-10-10T11:20:57.946Z,19.22
2023-10-10T11:23:43.238Z,19.29
2023-10-10T11:26:16.818Z,19.36
2023-10-10T11:28:49.715Z,19.42
2023-10-10T11:31:25.376Z,19.47
2023-10-10T11:34:12.266Z,19.51
2023-10-10T11:36:43.865Z,19.55
2023-10-10T11:39:32.972Z,19.57
2023-10-10T11:42:06.724Z,19.57
2023-10-10T11:44:43.023Z,19.61
2023-10-10T11:47:25.867Z,19.62
2023-10-10T11:50:06.909Z,19.62
2023-10-10T11:52:51.423Z,19.63
2023-10-10T11:55:23.518Z,19.67
2023-10-10T11:57:59.407Z,19.68
2023-10-10T12:00:37.065Z,19.69
2023-10-10T12:03:09.011Z,19.69
2023-10-10T12:05:49.651Z,19.70
2023-10-10T12:08:25.971Z,19.73
2023-10-10T12:11:07.893Z,19.77
2023-10-10T12:13:39.342Z,19.82
2023-10-10T12:16:11.993Z,19.85
2023-10-10T12:18:51.139Z,19.89
2023-10-10T12:21:26.948Z,19.94
2023-10-10T12:24:02.704Z,19.98
2023-10-10T12:26:40.067Z,20.00
2023-10-10T12:29:12.582Z,20.02
2023-10-10T12:31:44.313Z,20.03
2023-10-10T12:34:20.594Z,20.04
2023-10-10T12:36:51.911Z,20.06
2023-10-10T12:39:28.665Z,20.09
2023-10-10T12:42:01.059Z,20.11
2023-10-10T12:44:32.492Z,20.14
2023-10-10T12:47:07.901Z,20.16
2023-10-10T12:49:46.046Z,20.19
2023-10-10T12:52:19.080Z,20.20
2023-10-10T12:54:59.731Z,20.21
2023-10-10T12:57:34.112Z,20.24
2023-10-10T13:00:27.374Z,20.26
2023-10-10T13:02:58.786Z,20.28
2023-10-10T13:05:30.507Z,20.29
2023-10-10T13:08:07.490Z,20.32
2023-10-10T13:10:39.153Z,20.33
2023-10-10T13:13:10.551Z,20.37
2023-10-10T13:15:53.381Z,20.38
2023-10-10T13:18:26.823Z,20.38
2023-10-10T13:21:01.472Z,20.41
2023-10-10T13:23:32.846Z,20.44
2023-10-10T13:26:07.515Z,20.46
2023-10-10T13:28:45.567Z,20.49
2023-10-10T13:31:18.329Z,20.52
2023-10-10T13:33:49.976Z,20.53
2023-10-10T13:36:21.835Z,20.55
2023-10-10T13:38:58.993Z,20.55
2023-10-10T13:41:30.452Z,20.55
2023-10-10T13:44:01.868Z,20.55
2023-10-10T13:46:36.030Z,20.53
2023-10-10T13:49:10.307Z,20.52
2023-10-10T13:51:42.140Z,20.52
2023-10-10T13:54:14.704Z,20.54
2023-10-10T13:56:46.252Z,20.54
2023-10-10T13:59:18.516Z,20.55
2023-10-10T14:01:53.638Z,20.54
2023-10-10T14:04:28.648Z,20.54
2023-10-10T14:07:02.217Z,20.53
2023-10-10T14:09:39.960Z,20.52
2023-10-10T14:12:22.180Z,20.51
2023-10-10T14:14:53.513Z,20.52
2023-10-10T14:17:24.964Z,20.54
2023-10-10T14:19:59.512Z,20.53
2023-10-10T14:22:37.935Z,20.51
2023-10-10T14:25:21.364Z,20.51
2023-10-10T14:27:52.704Z,20.52
2023-10-10T14:30:24.929Z,20.50
2023-10-10T14:32:57.721Z,20.55
2023-10-10T14:35:29.387Z,20.55
2023-10-10T14:38:02.843Z,20.57
2023-10-10T14:40:35.776Z,20.57
2023-10-10T14:43:08.221Z,20.60
2023-10-10T14:45:44.301Z,20.61
2023-10-10T14:48:20.398Z,20.62
2023-10-10T14:50:54.001Z,20.62
2023-10-10T14:53:25.550Z,20.54
2023-10-10T14:55:57.075Z,20.59
2023-10-10T14:58:28.389Z,20.57
2023-10-10T15:00:59.895Z,20.54
2023-10-10T15:03:42.399Z,20.50
2023-10-10T15:06:17.092Z,20.45
2023-10-10T15:08:48.444Z,20.37
2023-10-10T15:11:19.814Z,20.32
2023-10-10T15:13:51.351Z,20.29
2023-10-10T15:16:24.342Z,20.27
2023-10-10T15:18:55.892Z,20.24
2023-10-10T15:21:33.925Z,20.20
2023-10-10T15:24:12.570Z,20.16
2023-10-10T15:26:46.891Z,20.14
2023-10-10T15:29:22.096Z,20.09
2023-10-10T15:31:53.557Z,20.03
2023-10-10T15:34:24.887Z,19.98
2023-10-10T15:36:58.377Z,19.94
2023-10-10T15:39:31.122Z,19.92
2023-10-10T15:42:05.861Z,19.89
2023-10-10T15:44:42.353Z,19.85
2023-10-10T15:47:14.050Z,19.84
2023-10-10T15:49:48.052Z,19.81
2023-10-10T15:52:19.721Z,19.76
2023-10-10T15:54:51.937Z,19.70
2023-10-10T15:57:27.288Z,19.64
2023-10-10T15:59:58.635Z,19.61
2023-10-10T16:02:32.205Z,19.57
2023-10-10T16:05:05.118Z,19.56
2023-10-10T16:07:36.392Z,19.54
2023-10-10T16:10:08.974Z,19.51
2023-10-10T16:12:44.037Z,19.44
2023-10-10T16:15:30.448Z,19.36
2023-10-10T16:18:02.480Z,19.26
2023-10-10T16:20:37.402Z,19.15
2023-10-10T16:23:09.624Z,19.06
2023-10-10T16:25:41.332Z,18.97
2023-10-10T16:28:12.839Z,18.88
2023-10-10T16:30:44.209Z,18.79
2023-10-10T16:33:15.614Z,18.71
2023-10-10T16:35:47.636Z,18.63
2023-10-10T16:38:23.538Z,18.57
2023-10-10T16:40:55.086Z,18.50
2023-10-10T16:43:26.645Z,18.45
2023-10-10T16:45:58.014Z,18.40
2023-10-10T16:48:32.576Z,18.34
2023-10-10T16:51:04.081Z,18.28
2023-10-10T16:53:35.360Z,18.22
2023-10-10T16:56:07.987Z,18.16
2023-10-10T16:58:39.629Z,18.11
2023-10-10T17:01:13.787Z,18.04
2023-10-10T17:03:47.701Z,17.98
2023-10-10T17:06:23.606Z,17.91
2023-10-10T17:08:56.874Z,17.89
2023-10-10T17:11:28.880Z,17.84
2023-10-10T17:14:04.576Z,17.81
2023-10-10T17:16:36.611Z,17.78
2023-10-10T17:19:16.994Z,17.75
2023-10-10T17:21:49.396Z,17.72
2023-10-10T17:24:21.205Z,17.68
2023-10-10T17:26:54.959Z,17.66
2023-10-10T17:29:27.900Z,17.62
2023-10-10T17:31:59.306Z,17.57
2023-10-10T17:34:34.551Z,17.53
2023-10-10T17:37:12.641Z,17.53
2023-10-10T17:39:44.120Z,17.53
2023-10-10T17:42:15.424Z,17.52
2023-10-10T17:44:46.942Z,17.51
2023-10-10T17:47:18.366Z,17.49
2023-10-10T17:49:49.678Z,17.47
2023-10-10T17:52:20.996Z,17.43
2023-10-10T17:54:52.434Z,17.40
2023-10-10T17:57:24.091Z,17.34
2023-10-10T17:59:55.392Z,17.30
2023-10-10T18:02:26.808Z,17.25
2023-10-10T18:04:59.654Z,17.22
2023-10-10T18:07:30.942Z,17.22
2023-10-10T18:10:02.221Z,17.17
2023-10-10T18:12:35.525Z,17.12
2023-10-10T18:15:11.261Z,17.04
2023-10-10T18:17:43.337Z,16.98
2023-10-10T18:20:17.706Z,16.91
2023-10-10T18:22:52.562Z,16.85
2023-10-10T18:25:27.089Z,16.80
2023-10-10T18:27:58.365Z,16.77
2023-10-10T18:30:29.696Z,16.74
2023-10-10T18:33:02.051Z,16.74
2023-10-10T18:35:33.476Z,16.73
2023-10-10T18:38:08.780Z,16.71
2023-10-10T18:40:45.304Z,16.70
2023-10-10T18:43:16.731Z,16.67
2023-10-10T18:45:48.054Z,16.65
2023-10-10T18:48:20.120Z,16.62
2023-10-10T18:50:51.727Z,16.58
2023-10-10T18:53:26.669Z,16.54
2023-10-10T18:55:59.854Z,16.49
2023-10-10T18:58:32.406Z,16.47
2023-10-10T19:01:03.780Z,16.45
2023-10-10T19:03:35.385Z,16.45
2023-10-10T19:06:07.880Z,16.42
2023-10-10T19:08:39.379Z,16.38
2023-10-10T19:11:12.090Z,16.34
2023-10-10T19:13:50.030Z,16.25
2023-10-10T19:16:22.746Z,16.24
2023-10-10T19:18:55.596Z,16.20
2023-10-10T19:21:31.706Z,16.15
2023-10-10T19:24:03.500Z,16.12
2023-10-10T19:26:36.421Z,16.13
2023-10-10T19:29:08.775Z,16.12
2023-10-10T19:31:41.328Z,16.10
2023-10-10T19:34:13.046Z,16.07
2023-10-10T19:36:45.929Z,16.06
2023-10-10T19:39:21.766Z,15.98
2023-10-10T19:41:54.168Z,15.87
2023-10-10T19:44:27.091Z,15.78
2023-10-10T19:46:58.495Z,15.75
2023-10-10T19:49:35.955Z,15.71
2023-10-10T19:52:07.607Z,15.71
2023-10-10T19:54:40.899Z,15.71
2023-10-10T19:57:14.096Z,15.70
2023-10-10T19:59:45.913Z,15.68
2023-10-10T20:02:18.489Z,15.65
2023-10-10T20:04:50.170Z,15.62
2023-10-10T20:07:21.558Z,15.59
2023-10-10T20:09:53.688Z,15.55
2023-10-10T20:12:25.424Z,15.54
2023-10-10T20:14:57.350Z,15.55
2023-10-10T20:17:28.865Z,15.58
2023-10-10T20:20:03.770Z,15.59
2023-10-10T20:22:36.543Z,15.61
2023-10-10T20:25:13.040Z,15.62
2023-10-10T20:27:44.299Z,15.62
2023-10-10T20:30:19.593Z,15.60
2023-10-10T20:32:53.938Z,15.58
2023-10-10T20:35:27.164Z,15.52
2023-10-10T20:38:00.557Z,15.48
2023-10-10T20:40:32.324Z,15.43
2023-10-10T20:43:05.673Z,15.42
2023-10-10T20:45:37.323Z,15.42
2023-10-10T20:48:12.703Z,15.41
2023-10-10T20:50:45.293Z,15.39
2023-10-10T20:53:17.804Z,15.38
2023-10-10T20:55:50.857Z,15.38
2023-10-10T20:58:23.209Z,15.35
2023-10-10T21:00:56.136Z,15.35
2023-10-10T21:03:27.826Z,15.34
2023-10-10T21:05:59.457Z,15.34
2023-10-10T21:08:31.966Z,15.33
2023-10-10T21:11:10.462Z,15.33
2023-10-10T21:13:42.048Z,15.34
2023-10-10T21:16:17.199Z,15.36
2023-10-10T21:18:49.235Z,15.38
2023-10-10T21:21:23.053Z,15.39
2023-10-10T21:23:54.599Z,15.40
2023-10-10T21:26:26.019Z,15.39
2023-10-10T21:28:57.328Z,15.41
2023-10-10T21:31:30.599Z,15.43
2023-10-10T21:34:02.198Z,15.42
2023-10-10T21:36:33.822Z,15.44
2023-10-10T21:39:06.411Z,15.46
2023-10-10T21:41:38.456Z,15.45
2023-10-10T21:44:12.080Z,15.46
2023-10-10T21:46:43.488Z,15.42
2023-10-10T21:49:16.334Z,15.38
2023-10-10T21:51:47.850Z,15.34
2023-10-10T21:54:23.244Z,15.28
2023-10-10T21:56:55.193Z,15.24
2023-10-10T21:59:27.240Z,15.22
2023-10-10T22:01:58.733Z,15.20
2023-10-10T22:04:31.272Z,15.18
2023-10-10T22:07:01.863Z,15.17
2023-10-10T22:09:34.332Z,15.13
2023-10-10T22:12:08.359Z,15.08
2023-10-10T22:14:39.677Z,15.04
2023-10-10T22:17:13.393Z,15.01
2023-10-10T22:19:47.425Z,14.97
2023-10-10T22:22:19.832Z,14.95
2023-10-10T22:24:51.173Z,14.89
2023-10-10T22:27:22.873Z,14.82
2023-10-10T22:29:54.291Z,14.78
2023-10-10T22:32:27.017Z,14.77
2023-10-10T22:34:58.503Z,14.76
2023-10-10T22:37:29.923Z,14.76
2023-10-10T22:40:01.320Z,14.76
2023-10-10T22:42:33.139Z,14.74
2023-10-10T22:45:05.019Z,14.76
2023-10-10T22:47:36.399Z,14.77
2023-10-10T22:50:16.060Z,14.81
2023-10-10T22:52:47.476Z,14.81
2023-10-10T22:55:19.161Z,14.81
2023-10-10T22:57:51.692Z,14.80
2023-10-10T23:00:27.771Z,14.79
2023-10-10T23:03:01.556Z,14.77
2023-10-10T23:05:34.445Z,14.74
2023-10-10T23:08:07.097Z,14.66
2023-10-10T23:10:40.303Z,14.62
2023-10-10T23:13:14.305Z,14.54
2023-10-10T23:15:50.137Z,14.48
2023-10-10T23:18:21.937Z,14.42
2023-10-10T23:20:54.068Z,14.36
2023-10-10T23:23:27.837Z,14.35
2023-10-10T23:25:59.144Z,14.33
2023-10-10T23:28:30.509Z,14.30
2023-10-10T23:31:02.231Z,14.35
2023-10-10T23:33:33.720Z,14.38
2023-10-10T23:36:07.600Z,14.41
2023-10-10T23:38:41.466Z,14.43
2023-10-10T23:41:15.305Z,14.46
2023-10-10T23:43:47.690Z,14.47
2023-10-10T23:46:23.241Z,14.47
2023-10-10T23:48:58.453Z,14.46
2023-10-10T23:51:30.215Z,14.46
2023-10-10T23:54:01.552Z,14.46
2023-10-10T23:56:35.220Z,14.45
2023-10-10T23:59:09.309Z,14.45
